createdAt,value
2022-10-18T00:01:22.496Z,2.25
2022-10-18T00:03:51.336Z,1.27
2022-10-18T00:06:20.224Z,1.70
2022-10-18T00:08:49.204Z,2.13
2022-10-18T00:11:19.413Z,1.13
2022-10-18T00:13:48.187Z,2.05
2022-10-18T00:16:18.636Z,1.50
2022-10-18T00:18:48.348Z,1.20
2022-10-18T00:21:19.425Z,2.03
2022-10-18T00:23:49.384Z,1.30
2022-10-18T00:26:21.212Z,1.20
2022-10-18T00:28:53.357Z,1.95
2022-10-18T00:31:24.158Z,0.90
2022-10-18T00:33:59.536Z,0.90
2022-10-18T00:36:30.137Z,0.93
2022-10-18T00:38:59.079Z,1.40
2022-10-18T00:41:30.809Z,1.75
2022-10-18T00:44:01.500Z,1.23
2022-10-18T00:46:32.205Z,1.80
2022-10-18T00:49:04.391Z,2.00
2022-10-18T00:51:37.559Z,1.27
2022-10-18T00:54:06.544Z,1.38
2022-10-18T00:56:37.188Z,0.82
2022-10-18T00:59:05.975Z,1.92
2022-10-18T01:01:34.762Z,0.80
2022-10-18T01:04:04.084Z,2.03
2022-10-18T01:06:33.781Z,2.28
2022-10-18T01:09:15.011Z,1.88
2022-10-18T01:12:07.556Z,1.27
2022-10-18T01:14:47.609Z,1.85
2022-10-18T01:17:21.338Z,1.60
2022-10-18T01:20:13.204Z,0.95
2022-10-18T01:22:46.395Z,1.95
2022-10-18T01:25:33.919Z,1.60
2022-10-18T01:28:14.207Z,1.13
2022-10-18T01:30:51.128Z,1.60
2022-10-18T01:33:34.046Z,1.48
2022-10-18T01:36:07.620Z,1.35
2022-10-18T01:38:38.173Z,1.10
2022-10-18T01:41:13.135Z,1.75
2022-10-18T01:43:47.122Z,2.00
2022-10-18T01:46:22.527Z,0.98
2022-10-18T01:48:52.588Z,2.75
2022-10-18T01:51:24.319Z,1.95
2022-10-18T01:53:52.956Z,1.35
2022-10-18T01:56:34.930Z,1.00
2022-10-18T01:59:20.614Z,1.88
2022-10-18T02:02:00.737Z,1.75
2022-10-18T02:04:38.188Z,1.45
2022-10-18T02:07:17.657Z,1.50
2022-10-18T02:09:53.100Z,1.33
2022-10-18T02:12:22.601Z,1.52
2022-10-18T02:14:52.706Z,0.95
2022-10-18T02:17:24.630Z,1.33
2022-10-18T02:19:56.241Z,1.52
2022-10-18T02:22:29.148Z,1.48
2022-10-18T02:25:01.055Z,1.80
2022-10-18T02:27:32.094Z,2.30
2022-10-18T02:30:00.842Z,1.15
2022-10-18T02:32:35.842Z,1.55
2022-10-18T02:35:09.660Z,1.23
2022-10-18T02:37:40.188Z,2.35
2022-10-18T02:40:11.082Z,1.08
2022-10-18T02:42:46.432Z,0.80
2022-10-18T02:45:16.034Z,2.03
2022-10-18T02:47:46.357Z,1.55
2022-10-18T02:50:15.712Z,1.27
2022-10-18T02:52:44.294Z,1.90
2022-10-18T02:55:12.962Z,1.83
2022-10-18T02:57:41.624Z,0.88
2022-10-18T03:00:11.650Z,1.40
2022-10-18T03:02:40.284Z,1.42
2022-10-18T03:05:10.398Z,1.60
2022-10-18T03:07:39.053Z,1.40
2022-10-18T03:10:08.761Z,1.00
2022-10-18T03:12:37.405Z,1.25
2022-10-18T03:15:06.979Z,1.35
2022-10-18T03:17:35.654Z,1.40
2022-10-18T03:20:04.518Z,1.88
2022-10-18T03:22:34.568Z,1.40
2022-10-18T03:25:03.432Z,1.35
2022-10-18T03:27:33.782Z,2.30
2022-10-18T03:30:02.862Z,1.20
2022-10-18T03:32:32.242Z,0.95
2022-10-18T03:35:01.086Z,1.00
2022-10-18T03:37:29.712Z,2.25
2022-10-18T03:39:59.708Z,1.85
2022-10-18T03:42:28.469Z,1.38
2022-10-18T03:44:57.456Z,1.65
2022-10-18T03:47:26.121Z,1.85
2022-10-18T03:49:57.090Z,1.65
2022-10-18T03:52:26.144Z,2.47
2022-10-18T03:54:54.753Z,1.38
2022-10-18T03:57:24.857Z,1.27
2022-10-18T03:59:53.662Z,1.48
2022-10-18T04:02:22.254Z,1.40
2022-10-18T04:04:50.878Z,1.67
2022-10-18T04:07:19.508Z,0.88
2022-10-18T04:09:48.098Z,1.50
2022-10-18T04:12:16.725Z,1.55
2022-10-18T04:14:46.730Z,1.00
2022-10-18T04:17:15.361Z,1.98
2022-10-18T04:19:44.029Z,1.65
2022-10-18T04:22:13.113Z,1.30
2022-10-18T04:24:41.718Z,1.52
2022-10-18T04:27:10.362Z,1.05
2022-10-18T04:29:39.026Z,0.85
2022-10-18T04:32:09.052Z,1.20
2022-10-18T04:34:37.873Z,1.27
2022-10-18T04:37:06.653Z,0.95
2022-10-18T04:39:35.328Z,1.25
2022-10-18T04:42:04.065Z,1.75
2022-10-18T04:44:32.678Z,2.03
2022-10-18T04:47:01.352Z,1.17
2022-10-18T04:49:31.424Z,1.52
2022-10-18T04:52:00.080Z,1.15
2022-10-18T04:54:28.763Z,2.25
2022-10-18T04:56:57.477Z,1.70
2022-10-18T04:59:26.134Z,1.23
2022-10-18T05:01:55.042Z,1.40
2022-10-18T05:04:23.736Z,1.38
2022-10-18T05:06:53.726Z,1.42
2022-10-18T05:09:24.814Z,1.20
2022-10-18T05:11:53.490Z,1.50
2022-10-18T05:14:22.157Z,1.23
2022-10-18T05:16:50.760Z,1.65
2022-10-18T05:19:19.422Z,2.20
2022-10-18T05:21:48.069Z,1.20
2022-10-18T05:24:18.061Z,1.73
2022-10-18T05:26:46.806Z,0.95
2022-10-18T05:29:15.510Z,1.75
2022-10-18T05:31:44.293Z,1.27
2022-10-18T05:34:12.936Z,1.67
2022-10-18T05:36:41.661Z,2.08
2022-10-18T05:39:10.401Z,1.20
2022-10-18T05:41:40.443Z,2.20
2022-10-18T05:44:09.253Z,1.65
2022-10-18T05:46:37.894Z,1.20
2022-10-18T05:49:06.484Z,1.88
2022-10-18T05:51:35.091Z,1.92
2022-10-18T05:54:03.718Z,1.85
2022-10-18T05:56:32.500Z,1.85
2022-10-18T05:59:05.114Z,1.63
2022-10-18T06:01:33.738Z,1.83
2022-10-18T06:04:02.713Z,2.33
2022-10-18T06:06:32.361Z,1.65
2022-10-18T06:09:03.362Z,1.55
2022-10-18T06:11:32.418Z,1.40
2022-10-18T06:14:02.868Z,2.60
2022-10-18T06:16:32.789Z,1.65
2022-10-18T06:19:01.700Z,1.60
2022-10-18T06:21:30.396Z,1.35
2022-10-18T06:24:00.209Z,2.25
2022-10-18T06:26:29.651Z,1.80
2022-10-18T06:28:58.441Z,2.10
2022-10-18T06:31:28.664Z,2.75
2022-10-18T06:33:58.490Z,2.20
2022-10-18T06:36:27.382Z,2.28
2022-10-18T06:38:56.864Z,2.22
2022-10-18T06:41:25.489Z,2.95
2022-10-18T06:43:57.569Z,2.05
2022-10-18T06:46:27.178Z,1.70
2022-10-18T06:48:57.755Z,3.80
2022-10-18T06:51:26.492Z,2.58
2022-10-18T06:54:17.545Z,1.73
2022-10-18T06:56:44.342Z,2.47
2022-10-18T06:59:12.919Z,3.05
2022-10-18T07:01:41.735Z,3.05
2022-10-18T07:04:11.794Z,2.15
2022-10-18T07:06:40.561Z,2.40
2022-10-18T07:09:09.202Z,1.13
2022-10-18T07:11:37.907Z,2.28
2022-10-18T07:14:06.503Z,2.22
2022-10-18T07:16:36.212Z,2.22
2022-10-18T07:19:05.072Z,3.42
2022-10-18T07:21:35.049Z,1.85
2022-10-18T07:24:04.028Z,2.75
2022-10-18T07:26:34.819Z,3.75
2022-10-18T07:29:07.732Z,2.15
2022-10-18T07:31:38.512Z,1.65
2022-10-18T07:34:07.633Z,2.03
2022-10-18T07:36:37.650Z,2.28
2022-10-18T07:39:06.505Z,1.73
2022-10-18T07:41:35.479Z,1.83
2022-10-18T07:44:04.996Z,1.38
2022-10-18T07:46:33.859Z,1.73
2022-10-18T07:49:02.513Z,2.40
2022-10-18T07:51:32.893Z,1.20
2022-10-18T07:54:03.984Z,1.27
2022-10-18T07:56:32.733Z,1.40
2022-10-18T07:59:01.381Z,2.25
2022-10-18T08:01:30.320Z,1.50
2022-10-18T08:04:06.146Z,1.42
2022-10-18T08:06:36.079Z,0.98
2022-10-18T08:09:06.223Z,2.58
2022-10-18T08:11:34.879Z,1.33
2022-10-18T08:14:03.603Z,2.58
2022-10-18T08:19:01.327Z,0.93
2022-10-18T08:21:30.143Z,1.58
2022-10-18T08:23:58.762Z,1.42
2022-10-18T08:26:28.878Z,2.10
2022-10-18T08:29:21.108Z,2.03
2022-10-18T08:31:46.040Z,1.95
2022-10-18T08:34:19.367Z,1.77
2022-10-18T08:36:48.439Z,2.22
2022-10-18T08:39:17.114Z,1.45
2022-10-18T08:42:10.848Z,1.10
2022-10-18T08:44:46.168Z,2.28
2022-10-18T08:47:18.134Z,1.48
2022-10-18T08:49:49.517Z,3.67
2022-10-18T08:52:27.066Z,2.67
2022-10-18T08:55:02.213Z,1.30
2022-10-18T08:57:34.311Z,1.58
2022-10-18T09:00:04.702Z,1.67
2022-10-18T09:02:45.540Z,1.83
2022-10-18T09:05:23.876Z,1.38
2022-10-18T09:08:11.669Z,1.90
2022-10-18T09:10:48.038Z,2.10
2022-10-18T09:13:45.261Z,3.60
2022-10-18T09:16:18.024Z,1.38
2022-10-18T09:18:57.820Z,1.70
2022-10-18T09:21:38.014Z,1.95
2022-10-18T09:24:14.202Z,2.50
2022-10-18T09:26:46.605Z,1.90
2022-10-18T09:29:42.046Z,2.65
2022-10-18T09:32:21.463Z,2.40
2022-10-18T09:34:54.486Z,1.35
2022-10-18T09:37:25.426Z,3.17
2022-10-18T09:40:03.734Z,1.63
2022-10-18T09:42:37.408Z,1.35
2022-10-18T09:45:16.742Z,1.80
2022-10-18T09:47:52.166Z,2.15
2022-10-18T09:50:28.238Z,1.58
2022-10-18T09:53:08.252Z,1.77
2022-10-18T09:55:41.916Z,2.38
2022-10-18T09:58:12.887Z,2.08
2022-10-18T10:00:48.007Z,2.72
2022-10-18T10:03:16.934Z,2.05
2022-10-18T10:05:46.092Z,1.98
2022-10-18T10:08:14.787Z,2.00
2022-10-18T10:10:48.373Z,2.95
2022-10-18T10:13:22.885Z,1.73
2022-10-18T10:15:56.648Z,2.60
2022-10-18T10:18:30.137Z,2.00
2022-10-18T10:21:01.342Z,2.42
2022-10-18T10:23:33.912Z,1.65
2022-10-18T10:26:05.386Z,1.80
2022-10-18T10:28:38.143Z,2.05
2022-10-18T10:31:26.658Z,2.67
2022-10-18T10:34:01.493Z,2.45
2022-10-18T10:36:31.773Z,3.25
2022-10-18T10:39:06.501Z,1.67
2022-10-18T10:41:35.663Z,3.05
2022-10-18T10:44:06.415Z,2.55
2022-10-18T10:46:37.739Z,1.98
2022-10-18T10:52:08.615Z,2.05
2022-10-18T10:54:51.245Z,1.50
2022-10-18T10:57:25.304Z,1.90
2022-10-18T10:59:55.589Z,2.55
2022-10-18T11:02:32.186Z,2.35
2022-10-18T11:05:23.923Z,2.40
2022-10-18T11:07:53.578Z,2.20
2022-10-18T11:10:25.700Z,2.17
2022-10-18T11:13:02.708Z,2.13
2022-10-18T11:15:36.528Z,2.60
2022-10-18T11:18:18.407Z,2.17
2022-10-18T11:20:52.002Z,1.73
2022-10-18T11:23:21.918Z,2.15
2022-10-18T11:26:02.085Z,2.28
2022-10-18T11:28:50.868Z,2.38
2022-10-18T11:31:26.080Z,1.30
2022-10-18T11:34:10.144Z,1.83
2022-10-18T11:36:56.060Z,1.23
2022-10-18T11:39:44.372Z,2.35
2022-10-18T11:42:21.778Z,1.60
2022-10-18T11:44:59.471Z,2.03
2022-10-18T11:47:40.969Z,1.75
2022-10-18T11:50:18.860Z,2.35
2022-10-18T11:52:56.940Z,3.25
2022-10-18T11:55:36.382Z,2.08
2022-10-18T11:58:19.428Z,2.22
2022-10-18T12:00:51.990Z,2.15
2022-10-18T12:03:36.011Z,2.55
2022-10-18T12:06:13.497Z,2.95
2022-10-18T12:08:46.598Z,2.58
2022-10-18T12:11:18.001Z,2.97
2022-10-18T12:13:50.301Z,2.03
2022-10-18T12:16:45.423Z,2.13
2022-10-18T12:19:23.442Z,2.55
2022-10-18T12:21:58.797Z,2.63
2022-10-18T12:24:31.563Z,1.80
2022-10-18T12:27:02.505Z,2.28
2022-10-18T12:29:36.845Z,2.17
2022-10-18T12:32:11.712Z,0.98
2022-10-18T12:34:46.043Z,1.85
2022-10-18T12:37:46.227Z,2.15
2022-10-18T12:40:21.431Z,2.47
2022-10-18T12:42:52.792Z,1.70
2022-10-18T12:45:32.363Z,2.45
2022-10-18T12:48:02.965Z,2.40
2022-10-18T12:50:35.990Z,2.05
2022-10-18T12:53:20.236Z,2.38
2022-10-18T12:55:51.649Z,1.70
2022-10-18T12:58:32.601Z,2.42
2022-10-18T13:01:08.627Z,1.88
2022-10-18T13:03:54.163Z,2.08
2022-10-18T13:06:24.392Z,2.13
2022-10-18T13:09:19.186Z,1.35
2022-10-18T13:11:48.102Z,2.35
2022-10-18T13:14:59.152Z,1.80
2022-10-18T13:17:41.972Z,1.58
2022-10-18T13:20:27.271Z,1.70
2022-10-18T13:23:10.047Z,3.47
2022-10-18T13:25:55.586Z,1.77
2022-10-18T13:28:32.721Z,2.28
2022-10-18T13:31:11.082Z,1.67
2022-10-18T13:33:41.446Z,1.90
2022-10-18T13:36:23.678Z,1.98
2022-10-18T13:39:06.035Z,2.45
2022-10-18T13:42:14.341Z,2.28
2022-10-18T13:44:44.816Z,2.03
2022-10-18T13:47:16.035Z,2.83
2022-10-18T13:50:25.999Z,1.40
2022-10-18T13:53:27.301Z,2.20
2022-10-18T13:56:11.741Z,1.95
2022-10-18T13:59:13.250Z,2.63
2022-10-18T14:01:54.975Z,2.05
2022-10-18T14:04:43.696Z,2.25
2022-10-18T14:07:13.266Z,2.05
2022-10-18T14:09:51.211Z,3.08
2022-10-18T14:12:29.891Z,1.33
2022-10-18T14:15:06.706Z,1.85
2022-10-18T14:17:41.144Z,3.00
2022-10-18T14:20:21.987Z,3.50
2022-10-18T14:22:57.638Z,2.10
2022-10-18T14:25:29.744Z,2.85
2022-10-18T14:28:12.694Z,2.42
2022-10-18T14:30:59.729Z,2.08
2022-10-18T14:33:32.687Z,2.03
2022-10-18T14:36:04.957Z,2.30
2022-10-18T14:38:34.328Z,1.88
2022-10-18T14:41:16.266Z,3.25
2022-10-18T14:43:47.260Z,2.42
2022-10-18T14:46:24.225Z,2.42
2022-10-18T14:48:57.895Z,2.33
2022-10-18T14:51:27.222Z,3.10
2022-10-18T14:53:56.969Z,1.75
2022-10-18T14:56:30.301Z,2.85
2022-10-18T14:59:04.040Z,2.97
2022-10-18T15:01:36.478Z,2.50
2022-10-18T15:04:09.479Z,2.42
2022-10-18T15:06:43.182Z,3.00
2022-10-18T15:09:14.050Z,2.17
2022-10-18T15:11:43.986Z,2.10
2022-10-18T15:14:17.348Z,2.20
2022-10-18T15:16:48.696Z,2.08
2022-10-18T15:19:33.963Z,1.98
2022-10-18T15:22:30.190Z,4.35
2022-10-18T15:25:12.501Z,2.60
2022-10-18T15:27:45.123Z,3.42
2022-10-18T15:30:21.118Z,3.88
2022-10-18T15:32:53.679Z,4.07
2022-10-18T15:35:27.208Z,2.95
2022-10-18T15:37:57.990Z,2.58
2022-10-18T15:40:39.113Z,2.63
2022-10-18T15:43:36.846Z,1.90
2022-10-18T15:46:07.410Z,3.72
2022-10-18T15:48:39.470Z,2.47
2022-10-18T15:51:09.995Z,2.00
2022-10-18T15:53:52.884Z,2.95
2022-10-18T15:56:31.379Z,2.72
2022-10-18T15:59:04.625Z,2.35
2022-10-18T16:01:43.662Z,2.47
2022-10-18T16:04:19.682Z,2.92
2022-10-18T16:06:48.405Z,2.88
2022-10-18T16:09:18.872Z,2.28
2022-10-18T16:11:55.609Z,2.95
2022-10-18T16:14:28.123Z,2.47
2022-10-18T16:17:02.155Z,4.03
2022-10-18T16:19:32.116Z,3.63
2022-10-18T16:22:06.392Z,3.97
2022-10-18T16:24:35.575Z,2.30
2022-10-18T16:27:04.386Z,4.15
2022-10-18T16:29:35.008Z,2.40
2022-10-18T16:32:03.790Z,3.83
2022-10-18T16:34:32.737Z,4.78
2022-10-18T16:37:01.501Z,4.32
2022-10-18T16:39:34.895Z,2.92
2022-10-18T16:42:04.763Z,4.53
2022-10-18T16:44:34.770Z,2.72
2022-10-18T16:47:03.829Z,2.63
2022-10-18T16:49:33.523Z,2.95
2022-10-18T16:52:02.153Z,3.13
2022-10-18T16:54:30.737Z,2.97
2022-10-18T16:56:59.407Z,3.33
2022-10-18T16:59:30.028Z,2.75
2022-10-18T17:02:01.638Z,2.55
2022-10-18T17:04:30.615Z,1.80
2022-10-18T17:06:59.640Z,0.70
2022-10-18T17:09:28.360Z,1.50
2022-10-18T17:11:57.081Z,0.43
2022-10-18T17:14:26.010Z,1.40
2022-10-18T17:16:56.044Z,0.70
2022-10-18T17:19:27.607Z,0.60
2022-10-18T17:22:01.558Z,0.65
2022-10-18T17:24:31.223Z,0.75
2022-10-18T17:26:59.855Z,0.50
2022-10-18T17:29:28.594Z,0.90
2022-10-18T17:31:57.285Z,0.57
2022-10-18T17:34:27.431Z,0.88
2022-10-18T17:36:56.761Z,0.20
2022-10-18T17:39:25.837Z,0.95
2022-10-18T17:41:55.550Z,0.35
2022-10-18T17:44:24.293Z,0.93
2022-10-18T17:46:53.057Z,0.30
2022-10-18T17:49:22.335Z,0.82
2022-10-18T17:51:52.369Z,0.70
2022-10-18T17:54:21.185Z,0.55
2022-10-18T17:56:53.822Z,0.52
2022-10-18T17:59:23.347Z,0.70
2022-10-18T18:01:52.545Z,0.32
2022-10-18T18:04:21.230Z,0.73
2022-10-18T18:06:52.886Z,0.55
2022-10-18T18:09:21.624Z,0.60
2022-10-18T18:11:51.630Z,0.75
2022-10-18T18:14:20.308Z,0.85
2022-10-18T18:16:49.314Z,0.65
2022-10-18T18:19:19.095Z,1.00
2022-10-18T18:21:49.277Z,0.50
2022-10-18T18:24:24.616Z,0.60
2022-10-18T18:26:54.103Z,0.63
2022-10-18T18:29:23.470Z,0.65
2022-10-18T18:31:52.598Z,0.45
2022-10-18T18:34:22.285Z,0.45
2022-10-18T18:36:52.024Z,0.40
2022-10-18T18:39:24.532Z,0.93
2022-10-18T18:41:54.299Z,0.57
2022-10-18T18:44:24.633Z,0.43
2022-10-18T18:46:53.369Z,0.75
2022-10-18T18:49:22.211Z,1.02
2022-10-18T18:51:50.920Z,1.45
2022-10-18T18:54:19.654Z,0.73
2022-10-18T18:56:49.792Z,1.20
2022-10-18T18:59:20.359Z,0.73
2022-10-18T19:01:49.179Z,0.60
2022-10-18T19:04:18.377Z,1.20
2022-10-18T19:06:47.266Z,1.42
2022-10-18T19:09:21.730Z,0.50
2022-10-18T19:11:54.054Z,0.60
2022-10-18T19:14:24.262Z,0.82
2022-10-18T19:16:55.181Z,0.52
2022-10-18T19:19:25.725Z,0.40
2022-10-18T19:21:56.431Z,0.98
2022-10-18T19:24:26.943Z,0.50
2022-10-18T19:26:58.430Z,1.20
2022-10-18T19:29:29.826Z,0.50
2022-10-18T19:32:00.053Z,0.60
2022-10-18T19:34:30.195Z,1.02
2022-10-18T19:36:59.127Z,1.45
2022-10-18T19:39:29.624Z,1.05
2022-10-18T19:42:00.943Z,1.30
2022-10-18T19:44:31.883Z,1.42
2022-10-18T19:47:01.129Z,1.85
2022-10-18T19:49:29.863Z,2.10
2022-10-18T19:51:58.924Z,1.13
2022-10-18T19:54:27.927Z,1.17
2022-10-18T19:56:56.587Z,1.25
2022-10-18T19:59:26.666Z,1.92
2022-10-18T20:01:55.369Z,0.75
2022-10-18T20:04:24.177Z,1.73
2022-10-18T20:06:52.883Z,1.73
2022-10-18T20:09:22.822Z,1.17
2022-10-18T20:11:51.486Z,1.08
2022-10-18T20:14:20.222Z,2.05
2022-10-18T20:16:50.241Z,1.38
2022-10-18T20:19:18.849Z,1.05
2022-10-18T20:21:47.556Z,2.03
2022-10-18T20:24:16.177Z,2.70
2022-10-18T20:26:44.940Z,0.85
2022-10-18T20:29:13.717Z,1.00
2022-10-18T20:31:42.567Z,1.45
2022-10-18T20:34:13.873Z,2.17
2022-10-18T20:36:43.093Z,2.42
2022-10-18T20:39:11.782Z,1.08
2022-10-18T20:41:42.010Z,1.35
2022-10-18T20:44:14.830Z,2.47
2022-10-18T20:46:44.199Z,2.13
2022-10-18T20:49:16.482Z,3.63
2022-10-18T20:51:45.339Z,2.10
2022-10-18T20:54:14.364Z,1.27
2022-10-18T20:56:43.311Z,0.85
2022-10-18T20:59:12.333Z,2.60
2022-10-18T21:01:41.696Z,2.95
2022-10-18T21:04:11.666Z,2.38
2022-10-18T21:06:43.377Z,2.65
2022-10-18T21:09:15.174Z,1.23
2022-10-18T21:11:45.788Z,2.33
2022-10-18T21:14:16.189Z,2.13
2022-10-18T21:16:45.574Z,2.03
2022-10-18T21:19:17.164Z,2.30
2022-10-18T21:21:49.668Z,1.85
2022-10-18T21:24:19.217Z,2.83
2022-10-18T21:26:48.902Z,2.25
2022-10-18T21:29:22.346Z,2.33
2022-10-18T21:31:53.908Z,2.38
2022-10-18T21:34:22.641Z,3.25
2022-10-18T21:36:52.656Z,2.40
2022-10-18T21:41:53.142Z,2.97
2022-10-18T21:44:22.066Z,2.92
2022-10-18T21:46:50.881Z,2.92
2022-10-18T21:49:20.396Z,2.10
2022-10-18T21:51:49.219Z,2.42
2022-10-18T21:54:19.378Z,2.17
2022-10-18T21:56:47.979Z,3.28
2022-10-18T21:59:16.577Z,2.70
2022-10-18T22:01:45.787Z,2.13
2022-10-18T22:04:21.437Z,2.80
2022-10-18T22:06:50.099Z,3.95
2022-10-18T22:09:21.292Z,3.95
2022-10-18T22:11:52.450Z,4.60
2022-10-18T22:14:21.257Z,3.17
2022-10-18T22:16:50.183Z,2.58
2022-10-18T22:19:19.208Z,2.75
2022-10-18T22:21:47.969Z,2.97
2022-10-18T22:24:16.968Z,3.25
2022-10-18T22:26:47.794Z,1.70
2022-10-18T22:29:18.321Z,2.72
2022-10-18T22:31:49.154Z,2.97
2022-10-18T22:34:20.072Z,4.90
2022-10-18T22:36:48.746Z,3.05
2022-10-18T22:39:18.078Z,3.60
2022-10-18T22:41:52.144Z,3.28
2022-10-18T22:44:20.789Z,4.07
2022-10-18T22:46:49.432Z,3.03
2022-10-18T22:49:18.081Z,4.40
2022-10-18T22:51:46.712Z,5.28
2022-10-18T22:54:15.379Z,3.70
2022-10-18T22:56:44.121Z,2.28
2022-10-18T22:59:14.144Z,5.75
2022-10-18T23:01:42.754Z,3.08
2022-10-18T23:04:11.681Z,3.35
2022-10-18T23:06:41.484Z,3.67
2022-10-18T23:09:12.295Z,2.78
2022-10-18T23:11:40.948Z,5.30
2022-10-18T23:14:10.085Z,2.42
2022-10-18T23:16:41.177Z,3.63
2022-10-18T23:19:15.087Z,2.80
2022-10-18T23:21:44.165Z,3.47
2022-10-18T23:24:12.892Z,4.15
2022-10-18T23:26:41.536Z,2.85
2022-10-18T23:29:10.707Z,4.30
2022-10-18T23:31:40.937Z,3.88
2022-10-18T23:34:10.863Z,1.55
2022-10-18T23:36:39.551Z,3.95
2022-10-18T23:39:08.335Z,3.80
2022-10-18T23:41:37.065Z,4.82
2022-10-18T23:44:05.899Z,4.85
2022-10-18T23:46:34.534Z,3.40
2022-10-18T23:49:04.476Z,4.30
2022-10-18T23:51:33.142Z,3.50
2022-10-18T23:54:01.819Z,5.57
2022-10-18T23:56:30.582Z,4.43
2022-10-18T23:58:59.257Z,3.25
